| time (UTC) | temp C | wind direction | speed KPH | gust KPH | rain 1hr cm | rain 24hr cm | rain mn cm | humidity % | barometer mb |
| 20260905212119 | 16 | 300 | 11.3 | 0.0 | 0.00 | 0.00 | 0.00 | 55 | |
| 20260905202121 | 17 | 330 | 14.5 | 0.0 | 0.00 | 0.00 | 0.00 | 51 | |
| 20260905192529 | 18 | 270 | 14.5 | 0.0 | 0.00 | 0.00 | 0.00 | 48 | |
| 20260905182105 | 20 | 290 | 14.5 | 0.0 | 0.00 | 0.00 | 0.00 | 45 | |
| 20260905172220 | 21 | 280 | 32.2 | 49.9 | 0.00 | 0.00 | 0.00 | 40 | |
| 20260905162524 | 22 | 270 | 35.4 | 0.0 | 0.00 | 0.00 | 0.00 | 37 | |
| 20260905151953 | 22 | 280 | 35.4 | 53.1 | 0.00 | 0.00 | 0.00 | 33 | |
| 20260905141941 | 22 | 290 | 41.8 | 0.0 | 0.00 | 0.00 | 0.00 | 33 | |
| 20260905132330 | 22 | 300 | 35.4 | 0.0 | 0.00 | 0.00 | 0.00 | 35 | |
| 20260905122228 | 22 | 270 | 32.2 | 49.9 | 0.00 | 0.00 | 0.00 | 40 | |
| 20260905112111 | 22 | 270 | 32.2 | 0.0 | 0.00 | 0.00 | 0.00 | 43 | |
| 20260905102531 | 18 | 260 | 25.7 | 0.0 | 0.00 | 0.00 | 0.00 | 55 | |
| 20260905092116 | 17 | 260 | 25.7 | 0.0 | 0.00 | 0.00 | 0.00 | 72 | |
| 20260905082127 | 15 | 280 | 19.3 | 0.0 | 0.00 | 0.00 | 0.00 | 82 | |
| 20260905072426 | 15 | 220 | 11.3 | 0.0 | 0.00 | 0.00 | 0.00 | 82 | |
| 20260905062608 | 15 | 310 | 19.3 | 0.0 | 0.00 | 0.00 | 0.00 | 77 | |
| 20260905062128 | 15 | 310 | 19.3 | 0.0 | 0.00 | 0.00 | 0.00 | 77 | |
| 20260905052125 | 15 | 300 | 19.3 | 0.0 | 0.00 | 0.00 | 0.00 | 77 | |
| 20260905042532 | 16 | 330 | 19.3 | 0.0 | 0.00 | 0.00 | 0.00 | 72 | |
| 20260905032126 | 17 | 320 | 25.7 | 0.0 | 0.00 | 0.00 | 0.00 | 59 | |
| 20260905022127 | 18 | 340 | 35.4 | 53.1 | 0.00 | 0.00 | 0.00 | 55 | |
| 20260905012427 | 22 | 280 | 22.5 | 72.4 | 0.00 | 0.00 | 0.00 | 53 | |
| 20260905002140 | 22 | 240 | 14.5 | 0.0 | 0.00 | 0.00 | 0.00 | 46 | |
| 20260904232211 | 22 | 250 | 11.3 | 0.0 | 0.00 | 0.00 | 0.00 | 46 | |
| 20260904222542 | 22 | 260 | 11.3 | 0.0 | 0.00 | 0.00 | 0.00 | 46 |